createdAt,value
2023-06-07T00:01:18.503Z,102123.31
2023-06-07T00:03:46.120Z,102118.53
2023-06-07T00:06:15.143Z,102119.22
2023-06-07T00:08:44.153Z,102127.53
2023-06-07T00:11:10.804Z,102134.25
2023-06-07T00:13:37.982Z,102139.34
2023-06-07T00:16:04.768Z,102141.09
2023-06-07T00:18:31.379Z,102142.44
2023-06-07T00:20:58.695Z,102134.34
2023-06-07T00:23:27.842Z,102137.44
2023-06-07T00:25:54.405Z,102138.78
2023-06-07T00:28:21.000Z,102133.00
2023-06-07T00:30:47.528Z,102135.50
2023-06-07T00:33:14.197Z,102131.28
2023-06-07T00:35:40.880Z,102137.88
2023-06-07T00:38:07.489Z,102128.38
2023-06-07T00:40:34.026Z,102137.78
2023-06-07T00:43:00.595Z,102127.53
2023-06-07T00:45:27.124Z,102128.91
2023-06-07T00:47:53.827Z,102137.28
2023-06-07T00:50:20.703Z,102137.63
2023-06-07T00:52:47.287Z,102131.91
2023-06-07T00:55:14.448Z,102126.78
2023-06-07T00:57:42.308Z,102136.22
2023-06-07T01:00:14.923Z,102129.84
2023-06-07T01:02:42.813Z,102136.34
2023-06-07T01:05:09.666Z,102134.50
2023-06-07T01:07:36.138Z,102135.41
2023-06-07T01:10:03.915Z,102127.31
2023-06-07T01:12:31.293Z,102125.13
2023-06-07T01:14:58.074Z,102125.03
2023-06-07T01:17:25.636Z,102123.22
2023-06-07T01:19:54.354Z,102124.81
2023-06-07T01:22:25.958Z,102121.63
2023-06-07T01:24:53.650Z,102132.50
2023-06-07T01:27:22.973Z,102128.75
2023-06-07T01:29:51.595Z,102125.22
2023-06-07T01:32:18.842Z,102126.34
2023-06-07T01:34:46.406Z,102124.75
2023-06-07T01:37:13.011Z,102129.94
2023-06-07T01:39:41.363Z,102126.41
2023-06-07T01:42:10.132Z,102124.28
2023-06-07T01:44:39.895Z,102124.16
2023-06-07T01:47:07.594Z,102124.16
2023-06-07T01:49:34.155Z,102120.88
2023-06-07T01:52:00.709Z,102120.75
2023-06-07T01:54:27.218Z,102115.59
2023-06-07T01:57:17.733Z,102120.16
2023-06-07T01:59:56.220Z,102114.56
2023-06-07T02:02:34.918Z,102114.66
2023-06-07T02:05:08.201Z,102115.41
2023-06-07T02:07:43.109Z,102106.00
2023-06-07T02:10:10.608Z,102103.97
2023-06-07T02:12:38.357Z,102113.53
2023-06-07T02:15:05.884Z,102107.75
2023-06-07T02:17:33.311Z,102113.34
2023-06-07T02:19:59.911Z,102114.16
2023-06-07T02:22:26.894Z,102108.81
2023-06-07T02:24:53.613Z,102111.69
2023-06-07T02:27:20.119Z,102114.06
2023-06-07T02:29:46.605Z,102112.63
2023-06-07T02:32:13.100Z,102113.53
2023-06-07T02:34:40.609Z,102108.88
2023-06-07T02:37:07.168Z,102107.56
2023-06-07T02:39:33.731Z,102110.81
2023-06-07T02:42:00.251Z,102109.03
2023-06-07T02:44:26.819Z,102103.00
2023-06-07T02:46:53.366Z,102104.31
2023-06-07T02:49:20.062Z,102103.63
2023-06-07T02:51:46.574Z,102104.94
2023-06-07T02:54:14.648Z,102096.03
2023-06-07T02:56:41.107Z,102100.59
2023-06-07T02:59:07.593Z,102105.91
2023-06-07T03:01:34.536Z,102108.16
2023-06-07T03:04:01.211Z,102103.53
2023-06-07T03:06:30.552Z,102112.00
2023-06-07T03:08:57.825Z,102119.38
2023-06-07T03:11:24.396Z,102109.09
2023-06-07T03:13:51.083Z,102111.97
2023-06-07T03:16:17.705Z,102113.44
2023-06-07T03:18:44.264Z,102113.34
2023-06-07T03:21:10.784Z,102113.81
2023-06-07T03:23:37.460Z,102109.03
2023-06-07T03:26:04.059Z,102107.00
2023-06-07T03:28:31.063Z,102106.88
2023-06-07T03:30:57.651Z,102104.44
2023-06-07T03:33:24.190Z,102108.91
2023-06-07T03:35:51.124Z,102114.63
2023-06-07T03:38:17.599Z,102113.88
2023-06-07T03:40:44.136Z,102123.03
2023-06-07T03:43:10.730Z,102129.28
2023-06-07T03:45:37.269Z,102129.41
2023-06-07T03:48:04.085Z,102132.34
2023-06-07T03:50:30.791Z,102121.91
2023-06-07T03:52:57.295Z,102123.03
2023-06-07T03:55:23.781Z,102123.38
2023-06-07T03:57:51.056Z,102122.63
2023-06-07T04:00:18.885Z,102127.69
2023-06-07T04:02:45.653Z,102131.06
2023-06-07T04:05:13.864Z,102132.00
2023-06-07T04:07:41.782Z,102126.19
2023-06-07T04:10:08.536Z,102121.59
2023-06-07T04:12:35.114Z,102130.75
2023-06-07T04:15:01.608Z,102131.28
2023-06-07T04:17:28.257Z,102134.81
2023-06-07T04:19:57.529Z,102132.44
2023-06-07T04:22:25.677Z,102130.53
2023-06-07T04:24:52.955Z,102130.25
2023-06-07T04:27:19.757Z,102129.47
2023-06-07T04:29:50.690Z,102126.41
2023-06-07T04:32:20.077Z,102119.16
2023-06-07T04:34:47.509Z,102115.66
2023-06-07T04:37:14.190Z,102118.47
2023-06-07T04:39:42.304Z,102114.94
2023-06-07T04:42:10.468Z,102116.59
2023-06-07T04:44:38.284Z,102116.97
2023-06-07T04:47:09.900Z,102126.47
2023-06-07T04:49:39.612Z,102130.69
2023-06-07T04:52:06.807Z,102132.56
2023-06-07T04:54:37.817Z,102130.09
2023-06-07T04:57:05.528Z,102129.91
2023-06-07T04:59:36.021Z,102133.81
2023-06-07T05:02:03.165Z,102121.66
2023-06-07T05:04:31.236Z,102130.75
2023-06-07T05:06:59.790Z,102132.09
2023-06-07T05:09:28.727Z,102128.94
2023-06-07T05:11:57.276Z,102131.03
2023-06-07T05:14:23.837Z,102135.41
2023-06-07T05:16:50.283Z,102135.00
2023-06-07T05:19:18.116Z,102136.09
2023-06-07T05:21:44.655Z,102138.47
2023-06-07T05:24:11.333Z,102150.00
2023-06-07T05:26:38.179Z,102147.06
2023-06-07T05:29:04.684Z,102153.09
2023-06-07T05:31:31.875Z,102145.13
2023-06-07T05:33:58.414Z,102140.66
2023-06-07T05:36:24.986Z,102129.50
2023-06-07T05:38:51.490Z,102136.28
2023-06-07T05:41:18.244Z,102132.09
2023-06-07T05:43:44.853Z,102131.63
2023-06-07T05:46:12.660Z,102133.41
2023-06-07T05:48:39.156Z,102134.56
2023-06-07T05:51:08.342Z,102132.63
2023-06-07T05:53:35.484Z,102143.69
2023-06-07T05:56:02.318Z,102136.06
2023-06-07T05:58:28.835Z,102127.03
2023-06-07T06:00:55.545Z,102130.47
2023-06-07T06:03:22.531Z,102130.47
2023-06-07T06:05:49.171Z,102144.28
2023-06-07T06:08:16.942Z,102145.91
2023-06-07T06:10:45.936Z,102151.09
2023-06-07T06:13:12.482Z,102140.09
2023-06-07T06:15:39.143Z,102136.91
2023-06-07T06:18:05.750Z,102150.41
2023-06-07T06:20:35.544Z,102149.06
2023-06-07T06:23:05.210Z,102149.50
2023-06-07T06:25:32.420Z,102147.34
2023-06-07T06:27:59.078Z,102154.75
2023-06-07T06:30:27.428Z,102147.69
2023-06-07T06:32:54.705Z,102150.31
2023-06-07T06:35:21.384Z,102149.75
2023-06-07T06:37:47.898Z,102158.47
2023-06-07T06:40:14.530Z,102164.75
2023-06-07T06:42:40.999Z,102168.56
2023-06-07T06:45:08.219Z,102162.00
2023-06-07T06:47:37.251Z,102163.22
2023-06-07T06:50:09.603Z,102164.69
2023-06-07T06:52:44.752Z,102176.88
2023-06-07T06:55:11.307Z,102190.31
2023-06-07T06:57:37.859Z,102190.13
2023-06-07T07:00:07.736Z,102192.16
2023-06-07T07:02:34.418Z,102185.59
2023-06-07T07:05:02.282Z,102195.94
2023-06-07T07:07:29.147Z,102194.56
2023-06-07T07:09:55.798Z,102197.28
2023-06-07T07:12:22.624Z,102192.94
2023-06-07T07:14:49.178Z,102191.50
2023-06-07T07:17:15.739Z,102197.78
2023-06-07T07:19:42.441Z,102190.38
2023-06-07T07:22:09.059Z,102195.78
2023-06-07T07:24:35.866Z,102200.53
2023-06-07T07:27:05.401Z,102193.16
2023-06-07T07:29:31.939Z,102189.91
2023-06-07T07:31:58.462Z,102200.44
2023-06-07T07:34:25.213Z,102188.50
2023-06-07T07:36:51.988Z,102187.41
2023-06-07T07:39:19.152Z,102175.84
2023-06-07T07:41:46.475Z,102173.28
2023-06-07T07:44:12.988Z,102176.91
2023-06-07T07:46:39.552Z,102179.56
2023-06-07T07:49:06.104Z,102175.47
2023-06-07T07:51:32.611Z,102184.97
2023-06-07T07:53:59.085Z,102185.13
2023-06-07T07:56:26.063Z,102186.53
2023-06-07T07:58:52.604Z,102185.84
2023-06-07T08:01:20.161Z,102176.31
2023-06-07T08:03:47.898Z,102182.81
2023-06-07T08:06:14.646Z,102180.34
2023-06-07T08:08:41.408Z,102175.41
2023-06-07T08:11:07.901Z,102180.59
2023-06-07T08:13:34.470Z,102178.50
2023-06-07T08:16:00.997Z,102176.91
2023-06-07T08:18:27.617Z,102178.28
2023-06-07T08:20:54.123Z,102170.84
2023-06-07T08:23:20.682Z,102166.75
2023-06-07T08:25:47.291Z,102173.47
2023-06-07T08:28:13.785Z,102168.34
2023-06-07T08:30:43.052Z,102178.94
2023-06-07T08:33:09.633Z,102177.69
2023-06-07T08:35:36.162Z,102176.78
2023-06-07T08:38:02.643Z,102170.31
2023-06-07T08:40:30.850Z,102169.56
2023-06-07T08:42:58.339Z,102169.56
2023-06-07T08:45:24.914Z,102176.63
2023-06-07T08:47:52.890Z,102169.59
2023-06-07T08:50:23.388Z,102164.16
2023-06-07T08:52:54.686Z,102166.66
2023-06-07T08:55:23.206Z,102172.81
2023-06-07T08:57:53.519Z,102165.41
2023-06-07T09:00:26.817Z,102165.50
2023-06-07T09:02:56.660Z,102167.59
2023-06-07T09:05:24.175Z,102161.16
2023-06-07T09:07:51.155Z,102166.47
2023-06-07T09:10:21.495Z,102170.47
2023-06-07T09:12:49.378Z,102171.41
2023-06-07T09:15:20.516Z,102170.22
2023-06-07T09:18:01.095Z,102173.97
2023-06-07T09:20:29.326Z,102174.50
2023-06-07T09:23:10.146Z,102173.75
2023-06-07T09:25:38.758Z,102172.00
2023-06-07T09:28:10.276Z,102161.09
2023-06-07T09:30:51.708Z,102169.16
2023-06-07T09:33:29.157Z,102169.88
2023-06-07T09:36:17.083Z,102165.16
2023-06-07T09:38:43.945Z,102168.34
2023-06-07T09:41:11.020Z,102162.84
2023-06-07T09:43:47.615Z,102161.84
2023-06-07T09:46:16.098Z,102156.34
2023-06-07T09:48:46.271Z,102155.63
2023-06-07T09:51:12.957Z,102152.16
2023-06-07T09:53:53.772Z,102162.66
2023-06-07T09:56:22.904Z,102166.69
2023-06-07T09:59:06.862Z,102154.84
2023-06-07T10:01:44.608Z,102167.78
2023-06-07T10:04:12.462Z,102156.44
2023-06-07T10:06:44.356Z,102158.81
2023-06-07T10:09:11.663Z,102161.06
2023-06-07T10:11:39.973Z,102153.00
2023-06-07T10:14:07.233Z,102153.13
2023-06-07T10:16:38.025Z,102143.84
2023-06-07T10:19:14.622Z,102141.25
2023-06-07T10:21:45.041Z,102143.59
2023-06-07T10:24:17.285Z,102138.88
2023-06-07T10:27:00.902Z,102137.25
2023-06-07T10:29:41.083Z,102140.84
2023-06-07T10:32:26.867Z,102147.66
2023-06-07T10:34:56.321Z,102145.69
2023-06-07T10:37:23.401Z,102132.69
2023-06-07T10:39:50.275Z,102129.53
2023-06-07T10:42:17.786Z,102136.56
2023-06-07T10:44:44.976Z,102140.16
2023-06-07T10:47:23.740Z,102133.00
2023-06-07T10:49:52.009Z,102127.31
2023-06-07T10:52:19.103Z,102124.53
2023-06-07T10:54:46.450Z,102127.88
2023-06-07T10:57:13.526Z,102116.81
2023-06-07T10:59:40.797Z,102120.81
2023-06-07T11:02:28.531Z,102118.44
2023-06-07T11:04:59.838Z,102123.59
2023-06-07T11:07:33.842Z,102119.63
2023-06-07T11:10:06.771Z,102120.47
2023-06-07T11:12:37.381Z,102129.56
2023-06-07T11:15:23.241Z,102126.81
2023-06-07T11:17:57.783Z,102118.47
2023-06-07T11:20:37.138Z,102122.38
2023-06-07T11:23:29.316Z,102112.59
2023-06-07T11:25:57.338Z,102106.75
2023-06-07T11:28:33.318Z,102115.78
2023-06-07T11:31:01.752Z,102099.59
2023-06-07T11:33:29.046Z,102104.75
2023-06-07T11:35:56.554Z,102103.97
2023-06-07T11:38:25.090Z,102100.00
2023-06-07T11:40:51.762Z,102097.25
2023-06-07T11:43:24.463Z,102092.09
2023-06-07T11:45:51.976Z,102090.50
2023-06-07T11:48:18.991Z,102093.25
2023-06-07T11:50:45.630Z,102079.34
2023-06-07T11:53:13.774Z,102071.34
2023-06-07T11:55:40.904Z,102074.66
2023-06-07T11:58:07.534Z,102064.34
2023-06-07T12:00:36.703Z,102066.97
2023-06-07T12:03:05.442Z,102069.72
2023-06-07T12:05:32.628Z,102066.63
2023-06-07T12:08:00.719Z,102073.22
2023-06-07T12:10:31.570Z,102070.16
2023-06-07T12:13:15.686Z,102065.59
2023-06-07T12:15:44.188Z,102065.94
2023-06-07T12:18:14.156Z,102069.47
2023-06-07T12:20:45.176Z,102072.00
2023-06-07T12:23:13.072Z,102071.53
2023-06-07T12:25:41.359Z,102078.38
2023-06-07T12:28:10.754Z,102077.06
2023-06-07T12:30:44.229Z,102073.63
2023-06-07T12:33:18.214Z,102061.84
2023-06-07T12:35:49.054Z,102066.44
2023-06-07T12:38:16.294Z,102063.31
2023-06-07T12:40:43.079Z,102056.19
2023-06-07T12:43:09.661Z,102061.13
2023-06-07T12:45:36.551Z,102054.28
2023-06-07T12:48:03.243Z,102044.59
2023-06-07T12:50:29.835Z,102049.81
2023-06-07T12:52:56.860Z,102047.34
2023-06-07T12:55:23.725Z,102047.03
2023-06-07T12:57:50.324Z,102042.38
2023-06-07T13:00:17.968Z,102038.25
2023-06-07T13:02:44.918Z,102044.84
2023-06-07T13:05:12.702Z,102038.91
2023-06-07T13:07:41.064Z,102029.44
2023-06-07T13:10:11.705Z,102027.63
2023-06-07T13:12:39.848Z,102037.19
2023-06-07T13:15:06.940Z,102031.56
2023-06-07T13:17:34.084Z,102034.16
2023-06-07T13:20:01.178Z,102024.75
2023-06-07T13:22:30.246Z,102021.25
2023-06-07T13:24:58.498Z,102019.44
2023-06-07T13:27:27.859Z,102020.00
2023-06-07T13:29:55.127Z,102018.44
2023-06-07T13:32:22.135Z,102012.09
2023-06-07T13:34:48.760Z,102009.44
2023-06-07T13:37:15.278Z,102006.09
2023-06-07T13:39:41.919Z,102005.28
2023-06-07T13:42:08.679Z,102003.63
2023-06-07T13:44:35.244Z,101999.78
2023-06-07T13:47:02.845Z,101992.72
2023-06-07T13:49:29.593Z,101990.34
2023-06-07T13:51:56.172Z,101985.13
2023-06-07T13:54:22.751Z,101983.63
2023-06-07T13:56:49.297Z,101978.16
2023-06-07T13:59:15.853Z,101975.06
2023-06-07T14:01:43.164Z,101976.84
2023-06-07T14:04:09.893Z,101975.66
2023-06-07T14:06:38.581Z,101969.88
2023-06-07T14:09:05.260Z,101975.66
2023-06-07T14:11:32.313Z,101967.84
2023-06-07T14:13:58.918Z,101970.09
2023-06-07T14:16:28.224Z,101963.72
2023-06-07T14:18:55.258Z,101963.72
2023-06-07T14:21:21.780Z,101962.25
2023-06-07T14:23:48.338Z,101954.44
2023-06-07T14:26:16.121Z,101961.34
2023-06-07T14:28:44.936Z,101953.91
2023-06-07T14:31:12.020Z,101956.88
2023-06-07T14:33:38.734Z,101963.63
2023-06-07T14:36:06.182Z,101955.94
2023-06-07T14:38:32.818Z,101950.91
2023-06-07T14:40:59.625Z,101950.28
2023-06-07T14:43:26.171Z,101950.91
2023-06-07T14:45:52.761Z,101942.69
2023-06-07T14:48:19.326Z,101932.72
2023-06-07T14:50:45.844Z,101943.28
2023-06-07T14:53:12.471Z,101945.56
2023-06-07T14:55:38.981Z,101935.94
2023-06-07T14:58:06.854Z,101929.31
2023-06-07T15:00:34.774Z,101936.25
2023-06-07T15:03:01.476Z,101933.78
2023-06-07T15:05:29.039Z,101924.91
2023-06-07T15:07:56.038Z,101926.75
2023-06-07T15:10:22.718Z,101930.78
2023-06-07T15:12:49.436Z,101930.31
2023-06-07T15:15:17.490Z,101931.66
2023-06-07T15:17:45.237Z,101930.34
2023-06-07T15:20:12.705Z,101935.22
2023-06-07T15:22:39.226Z,101928.72
2023-06-07T15:25:07.296Z,101930.38
2023-06-07T15:27:34.411Z,101929.66
2023-06-07T15:30:01.029Z,101933.94
2023-06-07T15:32:27.615Z,101920.59
2023-06-07T15:34:54.746Z,101923.16
2023-06-07T15:37:21.493Z,101928.03
2023-06-07T15:39:48.116Z,101918.13
2023-06-07T15:42:15.016Z,101916.97
2023-06-07T15:44:42.578Z,101911.22
2023-06-07T15:47:10.942Z,101913.66
2023-06-07T15:49:37.665Z,101905.16
2023-06-07T15:52:04.691Z,101909.41
2023-06-07T15:54:31.362Z,101913.38
2023-06-07T15:56:57.844Z,101908.16
2023-06-07T15:59:24.326Z,101908.50
2023-06-07T16:01:50.952Z,101907.22
2023-06-07T16:04:17.543Z,101909.88
2023-06-07T16:06:44.194Z,101915.22
2023-06-07T16:09:10.749Z,101904.63
2023-06-07T16:11:42.480Z,101902.81
2023-06-07T16:14:12.567Z,101902.47
2023-06-07T16:16:40.014Z,101907.44
2023-06-07T16:19:07.404Z,101903.34
2023-06-07T16:21:34.426Z,101905.06
2023-06-07T16:24:03.243Z,101893.16
2023-06-07T16:26:30.035Z,101896.00
2023-06-07T16:28:56.531Z,101903.09
2023-06-07T16:31:24.092Z,101906.16
2023-06-07T16:33:50.835Z,101894.44
2023-06-07T16:36:18.428Z,101894.16
2023-06-07T16:38:44.970Z,101885.16
2023-06-07T16:41:11.559Z,101901.53
2023-06-07T16:43:38.079Z,101899.97
2023-06-07T16:46:04.623Z,101898.41
2023-06-07T16:48:31.169Z,101898.47
2023-06-07T16:50:57.696Z,101897.47
2023-06-07T16:53:24.266Z,101890.38
2023-06-07T16:55:50.958Z,101896.22
2023-06-07T16:58:17.534Z,101890.63
2023-06-07T17:00:44.050Z,101890.22
2023-06-07T17:03:10.844Z,101892.13
2023-06-07T17:05:37.485Z,101891.34
2023-06-07T17:08:04.302Z,101888.09
2023-06-07T17:10:37.128Z,101881.06
2023-06-07T17:13:03.767Z,101878.16
2023-06-07T17:15:30.305Z,101887.78
2023-06-07T17:17:56.935Z,101880.16
2023-06-07T17:20:23.535Z,101877.66
2023-06-07T17:22:50.049Z,101881.16
2023-06-07T17:25:16.564Z,101882.09
2023-06-07T17:27:43.069Z,101892.34
2023-06-07T17:30:09.976Z,101886.88
2023-06-07T17:32:36.960Z,101885.47
2023-06-07T17:35:03.919Z,101885.13
2023-06-07T17:37:31.070Z,101885.59
2023-06-07T17:39:57.612Z,101880.50
2023-06-07T17:42:24.178Z,101891.25
2023-06-07T17:44:52.298Z,101892.88
2023-06-07T17:47:19.855Z,101887.34
2023-06-07T17:49:46.417Z,101892.16
2023-06-07T17:52:21.558Z,101894.84
2023-06-07T17:54:49.286Z,101887.22
2023-06-07T17:57:15.792Z,101883.19
2023-06-07T17:59:42.270Z,101885.38
2023-06-07T18:02:10.426Z,101884.84
2023-06-07T18:04:37.461Z,101890.03
2023-06-07T18:07:07.261Z,101892.97
2023-06-07T18:09:34.049Z,101882.97
2023-06-07T18:12:00.682Z,101888.50
2023-06-07T18:14:27.791Z,101880.38
2023-06-07T18:16:54.512Z,101883.97
2023-06-07T18:19:21.057Z,101887.00
2023-06-07T18:21:47.593Z,101882.75
2023-06-07T18:24:14.372Z,101882.06
2023-06-07T18:26:41.074Z,101888.00
2023-06-07T18:29:07.683Z,101884.00
2023-06-07T18:31:34.173Z,101886.81
2023-06-07T18:34:00.975Z,101887.69
2023-06-07T18:36:27.479Z,101888.06
2023-06-07T18:38:54.075Z,101892.50
2023-06-07T18:41:20.634Z,101884.47
2023-06-07T18:43:47.160Z,101885.66
2023-06-07T18:46:13.729Z,101879.13
2023-06-07T18:48:40.304Z,101883.91
2023-06-07T18:51:06.941Z,101883.59
2023-06-07T18:53:33.661Z,101899.38
2023-06-07T18:56:00.458Z,101902.13
2023-06-07T18:58:27.082Z,101900.97
2023-06-07T19:00:54.388Z,101899.09
2023-06-07T19:03:22.446Z,101906.63
2023-06-07T19:05:49.139Z,101901.16
2023-06-07T19:08:15.730Z,101903.97
2023-06-07T19:10:42.299Z,101910.38
2023-06-07T19:13:08.802Z,101905.31
2023-06-07T19:15:35.285Z,101901.00
2023-06-07T19:18:05.852Z,101895.50
2023-06-07T19:20:34.187Z,101895.94
2023-06-07T19:23:00.733Z,101903.03
2023-06-07T19:25:27.402Z,101903.81
2023-06-07T19:27:53.911Z,101912.91
2023-06-07T19:30:20.526Z,101906.59
2023-06-07T19:32:47.236Z,101909.34
2023-06-07T19:35:13.875Z,101908.94
2023-06-07T19:37:40.647Z,101912.81
2023-06-07T19:40:09.091Z,101912.84
2023-06-07T19:42:37.312Z,101911.63
2023-06-07T19:45:04.705Z,101911.59
2023-06-07T19:47:32.610Z,101908.44
2023-06-07T19:49:59.245Z,101909.56
2023-06-07T19:52:28.806Z,101916.59
2023-06-07T19:54:55.453Z,101913.03
2023-06-07T19:57:22.500Z,101916.56
2023-06-07T19:59:49.339Z,101913.41
2023-06-07T20:02:16.760Z,101921.22
2023-06-07T20:04:44.154Z,101920.72
2023-06-07T20:07:11.997Z,101915.53
2023-06-07T20:09:40.321Z,101926.97
2023-06-07T20:12:07.991Z,101928.84
2023-06-07T20:14:36.194Z,101922.88
2023-06-07T20:17:02.953Z,101928.78
2023-06-07T20:19:29.484Z,101933.03
2023-06-07T20:21:56.127Z,101940.44
2023-06-07T20:24:22.662Z,101944.28
2023-06-07T20:26:49.250Z,101940.34
2023-06-07T20:29:15.923Z,101947.66
2023-06-07T20:31:44.056Z,101952.03
2023-06-07T20:34:11.041Z,101947.22
2023-06-07T20:36:38.667Z,101953.78
2023-06-07T20:39:05.268Z,101951.34
2023-06-07T20:41:33.057Z,101946.13
2023-06-07T20:43:59.547Z,101947.31
2023-06-07T20:46:27.046Z,101943.31
2023-06-07T20:48:55.134Z,101948.75
2023-06-07T20:51:22.023Z,101953.78
2023-06-07T20:53:49.773Z,101953.38
2023-06-07T20:56:19.387Z,101963.16
2023-06-07T20:58:46.061Z,101960.13
2023-06-07T21:01:12.650Z,101954.22
2023-06-07T21:03:40.979Z,101956.03
2023-06-07T21:06:07.555Z,101956.47
2023-06-07T21:08:36.357Z,101956.13
2023-06-07T21:11:03.799Z,101957.88
2023-06-07T21:13:31.064Z,101953.47
2023-06-07T21:16:00.444Z,101951.00
2023-06-07T21:18:28.294Z,101950.84
2023-06-07T21:20:55.018Z,101955.09
2023-06-07T21:23:21.624Z,101959.31
2023-06-07T21:25:48.603Z,101954.19
2023-06-07T21:28:15.197Z,101960.84
2023-06-07T21:30:41.779Z,101955.81
2023-06-07T21:33:08.299Z,101958.41
2023-06-07T21:35:34.855Z,101959.69
2023-06-07T21:38:01.426Z,101960.03
2023-06-07T21:40:32.180Z,101962.69
2023-06-07T21:42:58.770Z,101964.22
2023-06-07T21:45:27.611Z,101966.19
2023-06-07T21:47:54.327Z,101971.72
2023-06-07T21:50:21.051Z,101971.00
2023-06-07T21:52:47.568Z,101958.63
2023-06-07T21:55:14.319Z,101975.44
2023-06-07T21:57:40.864Z,101976.03
2023-06-07T22:00:12.212Z,101979.19
2023-06-07T22:02:39.088Z,101972.38
2023-06-07T22:05:06.670Z,101980.09
2023-06-07T22:07:33.140Z,101979.72
2023-06-07T22:10:00.577Z,101973.91
2023-06-07T22:12:29.520Z,101964.59
2023-06-07T22:15:01.810Z,101968.97
2023-06-07T22:17:29.646Z,101966.59
2023-06-07T22:19:57.122Z,101958.31
2023-06-07T22:22:23.904Z,101960.63
2023-06-07T22:24:50.725Z,101956.19
2023-06-07T22:27:17.281Z,101960.50
2023-06-07T22:29:47.266Z,101964.47
2023-06-07T22:32:15.504Z,101960.94
2023-06-07T22:34:45.935Z,101968.72
2023-06-07T22:37:14.108Z,101960.63
2023-06-07T22:39:42.351Z,101962.59
2023-06-07T22:42:08.967Z,101954.09
2023-06-07T22:44:38.203Z,101958.13
2023-06-07T22:47:08.012Z,101966.13
2023-06-07T22:49:37.303Z,101957.28
2023-06-07T22:52:05.920Z,101962.69
2023-06-07T22:54:32.424Z,101960.22
2023-06-07T22:56:58.938Z,101966.56
2023-06-07T22:59:26.417Z,101956.75
2023-06-07T23:01:54.714Z,101967.81
2023-06-07T23:04:21.676Z,101965.50
2023-06-07T23:06:49.047Z,101968.25
2023-06-07T23:09:16.028Z,101960.38
2023-06-07T23:11:42.837Z,101963.97
2023-06-07T23:14:09.564Z,101965.41
2023-06-07T23:16:36.408Z,101974.16
2023-06-07T23:19:04.692Z,101964.53
2023-06-07T23:21:32.432Z,101959.88
2023-06-07T23:23:59.135Z,101952.66
2023-06-07T23:26:26.389Z,101953.81
2023-06-07T23:28:53.106Z,101948.16
2023-06-07T23:31:19.792Z,101939.09
2023-06-07T23:33:46.400Z,101951.19
2023-06-07T23:36:14.530Z,101954.38
2023-06-07T23:38:41.097Z,101962.59
2023-06-07T23:41:07.698Z,101958.53
2023-06-07T23:43:34.209Z,101965.16
2023-06-07T23:46:00.947Z,101956.16
2023-06-07T23:48:28.660Z,101955.66
2023-06-07T23:50:56.028Z,101949.91
2023-06-07T23:53:22.634Z,101955.75
2023-06-07T23:55:49.133Z,101951.97
2023-06-07T23:58:15.631Z,101944.19
